createdAt,value
2023-04-04T00:02:33.862Z,1.90
2023-04-04T00:07:54.479Z,2.28
2023-04-04T00:13:15.442Z,2.03
2023-04-04T00:18:36.303Z,1.90
2023-04-04T00:23:57.723Z,1.55
2023-04-04T00:29:18.632Z,1.65
2023-04-04T00:34:39.207Z,1.60
2023-04-04T00:40:00.036Z,1.58
2023-04-04T00:45:20.789Z,1.50
2023-04-04T00:50:41.795Z,1.60
2023-04-04T00:56:02.956Z,2.42
2023-04-04T01:01:25.861Z,1.75
2023-04-04T01:06:47.005Z,1.90
2023-04-04T01:12:07.702Z,1.83
2023-04-04T01:17:29.711Z,1.90
2023-04-04T01:22:51.920Z,1.80
2023-04-04T01:28:13.489Z,1.90
2023-04-04T01:33:43.391Z,1.90
2023-04-04T01:39:18.794Z,2.00
2023-04-04T01:44:39.900Z,2.60
2023-04-04T01:50:00.769Z,1.77
2023-04-04T01:55:21.901Z,2.40
2023-04-04T02:00:42.802Z,1.77
2023-04-04T02:06:03.947Z,2.30
2023-04-04T02:11:25.143Z,2.13
2023-04-04T02:16:46.240Z,2.20
2023-04-04T02:22:07.155Z,2.30
2023-04-04T02:27:27.828Z,2.13
2023-04-04T02:32:49.037Z,2.17
2023-04-04T02:38:12.872Z,2.13
2023-04-04T02:43:39.564Z,2.40
2023-04-04T02:49:03.746Z,2.20
2023-04-04T02:54:25.784Z,2.13
2023-04-04T02:59:46.987Z,2.65
2023-04-04T03:05:08.093Z,2.00
2023-04-04T03:10:32.777Z,1.63
2023-04-04T03:16:06.769Z,2.00
2023-04-04T03:21:47.614Z,2.05
2023-04-04T03:27:08.463Z,2.08
2023-04-04T03:32:29.161Z,2.20
2023-04-04T03:37:49.852Z,2.50
2023-04-04T03:43:10.576Z,2.00
2023-04-04T03:48:31.952Z,2.55
2023-04-04T03:53:52.535Z,2.05
2023-04-04T03:59:13.457Z,2.30
2023-04-04T04:04:34.156Z,2.55
2023-04-04T04:09:55.274Z,1.92
2023-04-04T04:15:16.048Z,2.25
2023-04-04T04:20:38.627Z,2.45
2023-04-04T04:25:59.708Z,2.15
2023-04-04T04:31:22.420Z,2.35
2023-04-04T04:36:45.518Z,2.22
2023-04-04T04:42:19.763Z,2.70
2023-04-04T04:47:46.271Z,2.70
2023-04-04T04:53:10.782Z,2.88
2023-04-04T04:58:32.528Z,2.88
2023-04-04T05:03:55.081Z,2.97
2023-04-04T05:09:22.811Z,2.63
2023-04-04T05:14:44.804Z,3.25
2023-04-04T05:20:07.744Z,2.40
2023-04-04T05:25:31.191Z,2.08
2023-04-04T05:30:53.623Z,2.20
2023-04-04T05:36:18.678Z,2.60
2023-04-04T05:41:47.223Z,2.58
2023-04-04T05:47:11.152Z,2.35
2023-04-04T05:52:36.594Z,2.50
2023-04-04T05:57:58.622Z,2.30
2023-04-04T06:03:33.892Z,2.72
2023-04-04T06:08:56.034Z,2.50
2023-04-04T06:14:16.657Z,2.05
2023-04-04T06:19:39.359Z,2.28
2023-04-04T06:24:59.976Z,2.65
2023-04-04T06:30:21.857Z,2.38
2023-04-04T06:35:45.881Z,1.75
2023-04-04T06:41:08.300Z,1.98
2023-04-04T06:46:31.478Z,1.63
2023-04-04T06:51:52.700Z,1.60
2023-04-04T06:57:13.726Z,2.30
2023-04-04T07:02:35.099Z,2.38
2023-04-04T07:07:57.038Z,2.00
2023-04-04T07:13:17.893Z,2.30
2023-04-04T07:18:38.634Z,2.40
2023-04-04T07:24:00.229Z,2.08
2023-04-04T07:29:24.079Z,2.17
2023-04-04T07:34:45.706Z,2.20
2023-04-04T07:40:08.783Z,2.42
2023-04-04T07:45:29.993Z,2.60
2023-04-04T07:50:50.633Z,3.03
2023-04-04T07:56:11.373Z,2.25
2023-04-04T08:01:32.158Z,2.40
2023-04-04T08:06:53.215Z,1.80
2023-04-04T08:12:13.999Z,1.95
2023-04-04T08:17:34.823Z,1.75
2023-04-04T08:22:55.436Z,1.80
2023-04-04T08:28:16.174Z,1.77
2023-04-04T08:33:47.251Z,1.63
2023-04-04T08:39:08.802Z,1.90
2023-04-04T08:44:30.753Z,1.27
2023-04-04T08:49:53.295Z,1.20
2023-04-04T08:55:15.398Z,1.48
2023-04-04T09:00:37.111Z,1.10
2023-04-04T09:05:57.986Z,1.20
2023-04-04T09:11:21.204Z,1.90
2023-04-04T09:16:42.454Z,1.20
2023-04-04T09:22:03.099Z,1.33
2023-04-04T09:27:24.097Z,1.15
2023-04-04T09:32:44.909Z,1.63
2023-04-04T09:38:08.981Z,1.40
2023-04-04T09:43:31.179Z,1.48
2023-04-04T09:48:52.183Z,1.80
2023-04-04T09:54:28.911Z,1.85
2023-04-04T09:59:51.439Z,2.08
2023-04-04T10:05:12.610Z,1.33
2023-04-04T10:10:34.391Z,1.70
2023-04-04T10:16:00.701Z,1.67
2023-04-04T10:21:22.577Z,1.45
2023-04-04T10:26:43.330Z,2.17
2023-04-04T10:32:12.574Z,1.80
2023-04-04T10:37:43.373Z,2.63
2023-04-04T10:43:05.332Z,1.90
2023-04-04T10:48:26.935Z,1.98
2023-04-04T10:53:48.449Z,2.00
2023-04-04T10:59:13.946Z,2.10
2023-04-04T11:04:42.082Z,1.80
2023-04-04T11:10:14.861Z,1.80
2023-04-04T11:15:58.498Z,2.63
2023-04-04T11:21:24.131Z,2.35
2023-04-04T11:26:46.158Z,1.80
2023-04-04T11:32:33.417Z,1.80
2023-04-04T11:37:54.161Z,2.13
2023-04-04T11:43:16.726Z,1.77
2023-04-04T11:48:38.891Z,2.10
2023-04-04T11:53:59.825Z,1.52
2023-04-04T11:59:22.733Z,1.83
2023-04-04T12:04:46.122Z,2.40
2023-04-04T12:10:09.069Z,1.83
2023-04-04T12:15:30.083Z,1.70
2023-04-04T12:20:52.186Z,1.80
2023-04-04T12:26:13.456Z,1.40
2023-04-04T12:31:34.548Z,1.55
2023-04-04T12:36:59.340Z,1.60
2023-04-04T12:42:25.121Z,1.30
2023-04-04T12:47:55.951Z,1.40
2023-04-04T12:59:04.903Z,1.83
2023-04-04T13:04:25.684Z,1.33
2023-04-04T13:09:58.518Z,0.90
2023-04-04T13:15:19.759Z,1.27
2023-04-04T13:20:40.690Z,1.65
2023-04-04T13:26:01.442Z,1.38
2023-04-04T13:31:22.303Z,1.25
2023-04-04T13:36:44.404Z,2.85
2023-04-04T13:42:05.028Z,1.20
2023-04-04T13:47:27.574Z,1.38
2023-04-04T13:52:48.470Z,1.20
2023-04-04T13:58:09.195Z,1.13
2023-04-04T14:03:31.127Z,1.30
2023-04-04T14:08:51.865Z,1.40
2023-04-04T14:14:12.461Z,0.88
2023-04-04T14:19:33.068Z,1.10
2023-04-04T14:24:53.696Z,1.10
2023-04-04T14:30:14.772Z,1.45
2023-04-04T14:35:36.588Z,0.95
2023-04-04T14:40:57.532Z,1.20
2023-04-04T14:46:19.851Z,1.55
2023-04-04T14:51:41.012Z,1.20
2023-04-04T14:57:02.305Z,1.33
2023-04-04T15:02:23.279Z,1.35
2023-04-04T15:07:45.357Z,1.23
2023-04-04T15:13:06.997Z,1.10
2023-04-04T15:18:28.387Z,1.10
2023-04-04T15:23:49.161Z,1.35
2023-04-04T15:29:09.894Z,0.90
2023-04-04T15:34:30.713Z,1.30
2023-04-04T15:39:53.644Z,1.35
2023-04-04T15:45:16.163Z,1.20
2023-04-04T15:50:36.886Z,0.90
2023-04-04T15:55:58.124Z,1.13
2023-04-04T16:01:18.894Z,1.30
2023-04-04T16:06:39.567Z,1.25
2023-04-04T16:12:02.309Z,1.02
2023-04-04T16:17:23.241Z,1.40
2023-04-04T16:22:44.132Z,1.02
2023-04-04T16:28:04.985Z,1.45
2023-04-04T16:33:25.739Z,1.00
2023-04-04T16:38:46.417Z,1.02
2023-04-04T16:44:07.152Z,1.83
2023-04-04T16:49:27.858Z,1.33
2023-04-04T16:54:48.542Z,1.10
2023-04-04T17:00:12.596Z,1.35
2023-04-04T17:05:33.428Z,1.40
2023-04-04T17:10:54.322Z,1.77
2023-04-04T17:16:15.116Z,1.55
2023-04-04T17:21:36.258Z,1.23
2023-04-04T17:26:58.385Z,1.30
2023-04-04T17:32:19.504Z,1.23
2023-04-04T17:37:40.967Z,1.00
2023-04-04T17:43:02.023Z,1.58
2023-04-04T17:48:26.786Z,2.40
2023-04-04T17:53:47.884Z,2.15
2023-04-04T17:59:08.800Z,1.50
2023-04-04T18:04:29.738Z,2.13
2023-04-04T18:09:50.848Z,1.48
2023-04-04T18:15:12.408Z,1.95
2023-04-04T18:20:42.562Z,1.98
2023-04-04T18:26:03.533Z,1.80
2023-04-04T18:31:24.272Z,2.40
2023-04-04T18:36:46.276Z,10.18
2023-04-04T18:42:10.588Z,2.10
2023-04-04T18:47:31.654Z,1.88
2023-04-04T18:52:52.676Z,2.38
2023-04-04T18:58:13.462Z,2.22
2023-04-04T19:03:41.977Z,2.17
2023-04-04T19:09:04.332Z,1.88
2023-04-04T19:14:26.056Z,1.55
2023-04-04T19:19:47.469Z,2.40
2023-04-04T19:25:09.038Z,1.80
2023-04-04T19:30:47.422Z,1.75
2023-04-04T19:36:11.237Z,1.80
2023-04-04T19:41:39.971Z,1.98
2023-04-04T19:47:01.174Z,9.43
2023-04-04T19:52:23.979Z,4.53
2023-04-04T19:57:44.747Z,3.70
2023-04-04T20:03:08.641Z,2.35
2023-04-04T20:08:36.590Z,2.30
2023-04-04T20:13:59.439Z,1.85
2023-04-04T20:19:20.844Z,1.75
2023-04-04T20:24:45.042Z,2.15
2023-04-04T20:30:11.671Z,2.30
2023-04-04T20:35:32.623Z,2.05
2023-04-04T20:40:54.275Z,3.33
2023-04-04T20:46:15.114Z,3.85
2023-04-04T20:51:37.833Z,3.53
2023-04-04T20:56:58.483Z,3.00
2023-04-04T21:02:23.503Z,8.05
2023-04-04T21:07:44.134Z,6.93
2023-04-04T21:13:06.010Z,6.35
2023-04-04T21:18:37.166Z,5.40
2023-04-04T21:24:01.663Z,6.35
2023-04-04T21:29:24.214Z,6.10
2023-04-04T21:34:44.870Z,7.00
2023-04-04T21:40:08.670Z,6.53
2023-04-04T21:45:29.265Z,6.22
2023-04-04T21:50:50.702Z,6.13
2023-04-04T21:56:12.354Z,5.18
2023-04-04T22:01:33.732Z,5.60
2023-04-04T22:06:54.696Z,4.47
2023-04-04T22:12:15.299Z,4.72
2023-04-04T22:17:36.332Z,5.50
2023-04-04T22:22:58.172Z,5.80
2023-04-04T22:28:24.803Z,4.75
2023-04-04T22:33:45.636Z,5.45
2023-04-04T22:39:06.357Z,6.03
2023-04-04T22:44:27.140Z,6.93
2023-04-04T22:49:51.041Z,5.95
2023-04-04T22:55:18.041Z,4.95
2023-04-04T23:00:39.382Z,5.53
2023-04-04T23:06:00.542Z,5.65
2023-04-04T23:11:22.130Z,6.18
2023-04-04T23:16:43.005Z,5.70
2023-04-04T23:22:03.783Z,6.25
2023-04-04T23:27:24.588Z,4.50
2023-04-04T23:32:45.340Z,4.60
2023-04-04T23:38:06.015Z,5.40
2023-04-04T23:43:26.600Z,4.43
2023-04-04T23:48:47.409Z,5.15
2023-04-04T23:54:09.688Z,4.53
2023-04-04T23:59:30.277Z,4.60
